sensor_id;sensor_type;location;lat;lon;timestamp;pressure;altitude;pressure_sealevel;temperature;humidity
79309;BME280;68767;53.078;7.386;2023-11-21T00:00:17;101354.06;;;8.20;100.00
79309;BME280;68767;53.078;7.386;2023-11-21T00:02:44;101353.81;;;8.16;100.00
79309;BME280;68767;53.078;7.386;2023-11-21T00:05:13;101365.25;;;8.22;100.00
79309;BME280;68767;53.078;7.386;2023-11-21T00:07:41;101364.19;;;8.23;100.00
79309;BME280;68767;53.078;7.386;2023-11-21T00:10:09;101355.94;;;8.20;100.00
79309;BME280;68767;53.078;7.386;2023-11-21T00:12:37;101354.56;;;8.22;100.00
79309;BME280;68767;53.078;7.386;2023-11-21T00:15:05;101364.53;;;8.16;100.00
79309;BME280;68767;53.078;7.386;2023-11-21T00:17:32;101360.72;;;8.23;100.00
79309;BME280;68767;53.078;7.386;2023-11-21T00:19:59;101353.25;;;8.20;100.00
79309;BME280;68767;53.078;7.386;2023-11-21T00:22:26;101364.31;;;8.13;100.00
79309;BME280;68767;53.078;7.386;2023-11-21T00:24:53;101367.19;;;8.16;100.00
79309;BME280;68767;53.078;7.386;2023-11-21T00:27:20;101372.25;;;8.18;100.00
79309;BME280;68767;53.078;7.386;2023-11-21T00:29:47;101371.47;;;8.17;100.00
79309;BME280;68767;53.078;7.386;2023-11-21T00:32:14;101365.25;;;8.22;100.00
79309;BME280;68767;53.078;7.386;2023-11-21T00:34:41;101365.59;;;8.15;100.00
79309;BME280;68767;53.078;7.386;2023-11-21T00:37:09;101366.66;;;8.20;100.00
79309;BME280;68767;53.078;7.386;2023-11-21T00:39:36;101359.91;;;8.22;100.00
79309;BME280;68767;53.078;7.386;2023-11-21T00:42:03;101357.78;;;8.19;100.00
79309;BME280;68767;53.078;7.386;2023-11-21T00:44:31;101366.34;;;8.21;100.00
79309;BME280;68767;53.078;7.386;2023-11-21T00:46:58;101354.09;;;8.15;100.00
79309;BME280;68767;53.078;7.386;2023-11-21T00:49:25;101347.56;;;8.02;100.00
79309;BME280;68767;53.078;7.386;2023-11-21T00:51:52;101350.81;;;7.99;100.00
79309;BME280;68767;53.078;7.386;2023-11-21T00:54:19;101352.59;;;7.85;100.00
79309;BME280;68767;53.078;7.386;2023-11-21T00:56:46;101359.66;;;7.76;100.00
79309;BME280;68767;53.078;7.386;2023-11-21T00:59:16;101369.63;;;7.70;100.00
79309;BME280;68767;53.078;7.386;2023-11-21T01:01:43;101387.44;;;7.80;100.00
79309;BME280;68767;53.078;7.386;2023-11-21T01:04:10;101384.31;;;7.73;100.00
79309;BME280;68767;53.078;7.386;2023-11-21T01:06:38;101391.72;;;7.81;100.00
79309;BME280;68767;53.078;7.386;2023-11-21T01:09:05;101399.44;;;7.82;100.00
79309;BME280;68767;53.078;7.386;2023-11-21T01:11:36;101399.09;;;7.89;100.00
79309;BME280;68767;53.078;7.386;2023-11-21T01:14:04;101407.63;;;7.91;100.00
79309;BME280;68767;53.078;7.386;2023-11-21T01:16:31;101410.03;;;7.93;100.00
79309;BME280;68767;53.078;7.386;2023-11-21T01:19:03;101416.72;;;7.95;100.00
79309;BME280;68767;53.078;7.386;2023-11-21T01:21:31;101411.06;;;7.97;100.00
79309;BME280;68767;53.078;7.386;2023-11-21T01:23:58;101422.28;;;7.99;100.00
79309;BME280;68767;53.078;7.386;2023-11-21T01:26:25;101431.34;;;8.03;100.00
79309;BME280;68767;53.078;7.386;2023-11-21T01:28:52;101434.56;;;8.00;100.00
79309;BME280;68767;53.078;7.386;2023-11-21T01:31:19;101431.84;;;8.05;100.00
79309;BME280;68767;53.078;7.386;2023-11-21T01:33:47;101445.69;;;8.12;100.00
79309;BME280;68767;53.078;7.386;2023-11-21T01:36:15;101448.53;;;8.21;100.00
79309;BME280;68767;53.078;7.386;2023-11-21T01:38:44;101445.59;;;8.17;100.00
79309;BME280;68767;53.078;7.386;2023-11-21T01:41:12;101448.56;;;8.15;100.00
79309;BME280;68767;53.078;7.386;2023-11-21T01:43:40;101446.13;;;8.19;100.00
79309;BME280;68767;53.078;7.386;2023-11-21T01:46:08;101453.63;;;8.17;100.00
79309;BME280;68767;53.078;7.386;2023-11-21T01:48:36;101459.75;;;8.23;100.00
79309;BME280;68767;53.078;7.386;2023-11-21T01:51:03;101451.72;;;8.23;100.00
79309;BME280;68767;53.078;7.386;2023-11-21T01:53:30;101458.69;;;8.18;100.00
79309;BME280;68767;53.078;7.386;2023-11-21T01:55:57;101457.69;;;8.14;100.00
79309;BME280;68767;53.078;7.386;2023-11-21T01:58:25;101464.13;;;8.13;100.00
79309;BME280;68767;53.078;7.386;2023-11-21T02:00:53;101461.13;;;8.20;100.00
79309;BME280;68767;53.078;7.386;2023-11-21T02:03:21;101466.72;;;8.18;100.00
79309;BME280;68767;53.078;7.386;2023-11-21T02:05:48;101462.53;;;8.12;100.00
79309;BME280;68767;53.078;7.386;2023-11-21T02:08:16;101465.25;;;8.07;100.00
79309;BME280;68767;53.078;7.386;2023-11-21T02:10:45;101470.56;;;8.12;100.00
79309;BME280;68767;53.078;7.386;2023-11-21T02:13:14;101467.13;;;8.07;100.00
79309;BME280;68767;53.078;7.386;2023-11-21T02:15:43;101471.13;;;8.09;100.00
79309;BME280;68767;53.078;7.386;2023-11-21T02:18:10;101468.41;;;8.14;100.00
79309;BME280;68767;53.078;7.386;2023-11-21T02:20:38;101470.84;;;8.11;100.00
79309;BME280;68767;53.078;7.386;2023-11-21T02:23:08;101479.91;;;8.15;100.00
79309;BME280;68767;53.078;7.386;2023-11-21T02:25:35;101488.50;;;8.12;100.00
79309;BME280;68767;53.078;7.386;2023-11-21T02:28:04;101482.88;;;8.13;100.00
79309;BME280;68767;53.078;7.386;2023-11-21T02:30:31;101491.41;;;8.15;100.00
79309;BME280;68767;53.078;7.386;2023-11-21T02:33:00;101493.22;;;8.20;100.00
79309;BME280;68767;53.078;7.386;2023-11-21T02:35:28;101493.06;;;8.11;100.00
79309;BME280;68767;53.078;7.386;2023-11-21T02:37:59;101486.63;;;8.12;100.00
79309;BME280;68767;53.078;7.386;2023-11-21T02:40:26;101488.13;;;8.18;100.00
79309;BME280;68767;53.078;7.386;2023-11-21T02:42:54;101494.56;;;8.17;100.00
79309;BME280;68767;53.078;7.386;2023-11-21T02:45:21;101494.13;;;8.10;100.00
79309;BME280;68767;53.078;7.386;2023-11-21T02:47:50;101492.69;;;8.18;100.00
79309;BME280;68767;53.078;7.386;2023-11-21T02:50:17;101490.56;;;8.20;100.00
79309;BME280;68767;53.078;7.386;2023-11-21T02:52:46;101494.81;;;8.21;100.00
79309;BME280;68767;53.078;7.386;2023-11-21T02:55:13;101505.28;;;8.17;100.00
79309;BME280;68767;53.078;7.386;2023-11-21T02:57:40;101495.94;;;8.15;100.00
79309;BME280;68767;53.078;7.386;2023-11-21T03:00:08;101502.84;;;8.21;100.00
79309;BME280;68767;53.078;7.386;2023-11-21T03:02:36;101519.72;;;8.22;100.00
79309;BME280;68767;53.078;7.386;2023-11-21T03:05:06;101514.34;;;8.22;100.00
79309;BME280;68767;53.078;7.386;2023-11-21T03:07:37;101514.91;;;8.18;100.00
79309;BME280;68767;53.078;7.386;2023-11-21T03:10:04;101521.13;;;8.14;100.00
79309;BME280;68767;53.078;7.386;2023-11-21T03:12:31;101526.19;;;8.15;100.00
79309;BME280;68767;53.078;7.386;2023-11-21T03:14:58;101523.72;;;8.19;100.00
79309;BME280;68767;53.078;7.386;2023-11-21T03:17:25;101535.47;;;8.23;100.00
79309;BME280;68767;53.078;7.386;2023-11-21T03:19:52;101533.63;;;8.18;100.00
79309;BME280;68767;53.078;7.386;2023-11-21T03:22:20;101538.16;;;8.23;100.00
79309;BME280;68767;53.078;7.386;2023-11-21T03:24:47;101539.94;;;8.33;100.00
79309;BME280;68767;53.078;7.386;2023-11-21T03:27:13;101531.97;;;8.28;100.00
79309;BME280;68767;53.078;7.386;2023-11-21T03:29:40;101537.66;;;8.21;100.00
79309;BME280;68767;53.078;7.386;2023-11-21T03:32:08;101538.66;;;8.25;100.00
79309;BME280;68767;53.078;7.386;2023-11-21T03:34:35;101548.34;;;8.21;100.00
79309;BME280;68767;53.078;7.386;2023-11-21T03:37:02;101547.16;;;8.32;100.00
79309;BME280;68767;53.078;7.386;2023-11-21T03:39:30;101547.97;;;8.33;100.00
79309;BME280;68767;53.078;7.386;2023-11-21T03:41:56;101547.75;;;8.29;100.00
79309;BME280;68767;53.078;7.386;2023-11-21T03:44:23;101550.63;;;8.33;100.00
79309;BME280;68767;53.078;7.386;2023-11-21T03:46:52;101560.53;;;8.32;100.00
79309;BME280;68767;53.078;7.386;2023-11-21T03:49:19;101565.16;;;8.27;100.00
79309;BME280;68767;53.078;7.386;2023-11-21T03:51:46;101563.22;;;8.37;100.00
79309;BME280;68767;53.078;7.386;2023-11-21T03:54:13;101574.22;;;8.36;100.00
79309;BME280;68767;53.078;7.386;2023-11-21T03:56:41;101573.13;;;8.37;100.00
79309;BME280;68767;53.078;7.386;2023-11-21T03:59:08;101576.88;;;8.36;100.00
79309;BME280;68767;53.078;7.386;2023-11-21T04:01:35;101591.06;;;8.36;100.00
79309;BME280;68767;53.078;7.386;2023-11-21T04:04:02;101594.00;;;8.35;100.00
79309;BME280;68767;53.078;7.386;2023-11-21T04:06:29;101598.81;;;8.38;100.00
79309;BME280;68767;53.078;7.386;2023-11-21T04:08:56;101596.13;;;8.38;100.00
79309;BME280;68767;53.078;7.386;2023-11-21T04:11:23;101598.81;;;8.33;100.00
79309;BME280;68767;53.078;7.386;2023-11-21T04:13:50;101606.56;;;8.34;100.00
79309;BME280;68767;53.078;7.386;2023-11-21T04:16:17;101596.69;;;8.35;100.00
79309;BME280;68767;53.078;7.386;2023-11-21T04:18:45;101611.69;;;8.36;100.00
79309;BME280;68767;53.078;7.386;2023-11-21T04:21:12;101610.31;;;8.33;100.00
79309;BME280;68767;53.078;7.386;2023-11-21T04:23:39;101608.19;;;8.35;100.00
79309;BME280;68767;53.078;7.386;2023-11-21T04:26:07;101609.53;;;8.33;100.00
79309;BME280;68767;53.078;7.386;2023-11-21T04:28:33;101618.66;;;8.37;100.00
79309;BME280;68767;53.078;7.386;2023-11-21T04:31:01;101614.38;;;8.36;100.00
79309;BME280;68767;53.078;7.386;2023-11-21T04:33:28;101619.94;;;8.39;100.00
79309;BME280;68767;53.078;7.386;2023-11-21T04:35:56;101619.16;;;8.39;100.00
79309;BME280;68767;53.078;7.386;2023-11-21T04:38:23;101622.63;;;8.39;100.00
79309;BME280;68767;53.078;7.386;2023-11-21T04:40:50;101632.03;;;8.37;100.00
79309;BME280;68767;53.078;7.386;2023-11-21T04:43:17;101620.75;;;8.40;100.00
79309;BME280;68767;53.078;7.386;2023-11-21T04:45:44;101628.50;;;8.41;100.00
79309;BME280;68767;53.078;7.386;2023-11-21T04:48:11;101631.97;;;8.42;100.00
79309;BME280;68767;53.078;7.386;2023-11-21T04:50:38;101636.53;;;8.41;100.00
79309;BME280;68767;53.078;7.386;2023-11-21T04:53:05;101641.94;;;8.36;100.00
79309;BME280;68767;53.078;7.386;2023-11-21T04:55:32;101645.66;;;8.35;100.00
79309;BME280;68767;53.078;7.386;2023-11-21T04:57:59;101647.81;;;8.33;100.00
79309;BME280;68767;53.078;7.386;2023-11-21T05:00:26;101658.81;;;8.32;100.00
79309;BME280;68767;53.078;7.386;2023-11-21T05:02:53;101668.16;;;8.34;100.00
79309;BME280;68767;53.078;7.386;2023-11-21T05:05:21;101672.19;;;8.32;100.00
79309;BME280;68767;53.078;7.386;2023-11-21T05:07:47;101679.13;;;8.33;100.00
79309;BME280;68767;53.078;7.386;2023-11-21T05:10:15;101680.22;;;8.32;100.00
79309;BME280;68767;53.078;7.386;2023-11-21T05:12:43;101685.88;;;8.30;100.00
79309;BME280;68767;53.078;7.386;2023-11-21T05:15:14;101692.81;;;8.31;100.00
79309;BME280;68767;53.078;7.386;2023-11-21T05:17:41;101692.53;;;8.33;100.00
79309;BME280;68767;53.078;7.386;2023-11-21T05:20:11;101705.91;;;8.33;100.00
79309;BME280;68767;53.078;7.386;2023-11-21T05:22:40;101705.13;;;8.32;100.00
79309;BME280;68767;53.078;7.386;2023-11-21T05:25:09;101707.56;;;8.29;100.00
79309;BME280;68767;53.078;7.386;2023-11-21T05:27:38;101717.69;;;8.32;100.00
79309;BME280;68767;53.078;7.386;2023-11-21T05:30:05;101720.91;;;8.34;100.00
79309;BME280;68767;53.078;7.386;2023-11-21T05:32:33;101722.53;;;8.35;100.00
79309;BME280;68767;53.078;7.386;2023-11-21T05:35:01;101721.97;;;8.33;100.00
79309;BME280;68767;53.078;7.386;2023-11-21T05:37:28;101723.56;;;8.34;100.00
79309;BME280;68767;53.078;7.386;2023-11-21T05:39:56;101729.22;;;8.32;100.00
79309;BME280;68767;53.078;7.386;2023-11-21T05:42:26;101731.09;;;8.37;100.00
79309;BME280;68767;53.078;7.386;2023-11-21T05:44:54;101730.28;;;8.36;100.00
79309;BME280;68767;53.078;7.386;2023-11-21T05:47:21;101747.97;;;8.37;100.00
79309;BME280;68767;53.078;7.386;2023-11-21T05:49:48;101748.75;;;8.38;100.00
79309;BME280;68767;53.078;7.386;2023-11-21T05:52:18;101753.81;;;8.39;100.00
79309;BME280;68767;53.078;7.386;2023-11-21T05:54:45;101749.56;;;8.38;100.00
79309;BME280;68767;53.078;7.386;2023-11-21T05:57:12;101757.06;;;8.36;100.00
79309;BME280;68767;53.078;7.386;2023-11-21T05:59:39;101766.16;;;8.35;100.00
79309;BME280;68767;53.078;7.386;2023-11-21T06:02:06;101762.44;;;8.36;100.00
79309;BME280;68767;53.078;7.386;2023-11-21T06:04:34;101765.63;;;8.38;100.00
79309;BME280;68767;53.078;7.386;2023-11-21T06:07:02;101775.25;;;8.34;100.00
79309;BME280;68767;53.078;7.386;2023-11-21T06:09:29;101772.91;;;8.23;100.00
79309;BME280;68767;53.078;7.386;2023-11-21T06:11:55;101790.34;;;8.20;100.00
79309;BME280;68767;53.078;7.386;2023-11-21T06:14:22;101788.75;;;8.14;100.00
79309;BME280;68767;53.078;7.386;2023-11-21T06:16:50;101795.19;;;8.13;100.00
79309;BME280;68767;53.078;7.386;2023-11-21T06:19:17;101799.50;;;8.09;100.00
79309;BME280;68767;53.078;7.386;2023-11-21T06:21:46;101802.72;;;8.06;100.00
79309;BME280;68767;53.078;7.386;2023-11-21T06:24:13;101801.66;;;8.02;100.00
79309;BME280;68767;53.078;7.386;2023-11-21T06:26:42;101807.81;;;8.02;100.00
79309;BME280;68767;53.078;7.386;2023-11-21T06:29:09;101804.09;;;7.98;100.00
79309;BME280;68767;53.078;7.386;2023-11-21T06:31:36;101816.91;;;8.01;100.00
79309;BME280;68767;53.078;7.386;2023-11-21T06:34:03;101819.91;;;7.95;100.00
79309;BME280;68767;53.078;7.386;2023-11-21T06:36:31;101823.94;;;7.92;100.00
79309;BME280;68767;53.078;7.386;2023-11-21T06:38:58;101830.06;;;7.93;100.00
79309;BME280;68767;53.078;7.386;2023-11-21T06:41:25;101827.69;;;7.86;100.00
79309;BME280;68767;53.078;7.386;2023-11-21T06:43:52;101833.06;;;7.81;100.00
79309;BME280;68767;53.078;7.386;2023-11-21T06:46:20;101836.84;;;7.75;100.00
79309;BME280;68767;53.078;7.386;2023-11-21T06:48:47;101847.28;;;7.71;100.00
79309;BME280;68767;53.078;7.386;2023-11-21T06:51:15;101854.25;;;7.72;100.00
79309;BME280;68767;53.078;7.386;2023-11-21T06:53:42;101858.00;;;7.71;100.00
79309;BME280;68767;53.078;7.386;2023-11-21T06:56:18;101868.97;;;7.70;100.00
79309;BME280;68767;53.078;7.386;2023-11-21T06:58:46;101871.63;;;7.70;100.00
79309;BME280;68767;53.078;7.386;2023-11-21T07:01:13;101882.88;;;7.67;100.00
79309;BME280;68767;53.078;7.386;2023-11-21T07:03:41;101879.66;;;7.65;100.00
79309;BME280;68767;53.078;7.386;2023-11-21T07:06:09;101881.53;;;7.64;100.00
79309;BME280;68767;53.078;7.386;2023-11-21T07:08:36;101886.09;;;7.58;100.00
79309;BME280;68767;53.078;7.386;2023-11-21T07:11:04;101893.59;;;7.56;100.00
79309;BME280;68767;53.078;7.386;2023-11-21T07:13:31;101893.59;;;7.51;100.00
79309;BME280;68767;53.078;7.386;2023-11-21T07:15:59;101898.41;;;7.49;100.00
79309;BME280;68767;53.078;7.386;2023-11-21T07:18:26;101901.88;;;7.50;100.00
79309;BME280;68767;53.078;7.386;2023-11-21T07:20:53;101906.19;;;7.46;100.00
79309;BME280;68767;53.078;7.386;2023-11-21T07:23:20;101908.56;;;7.47;100.00
79309;BME280;68767;53.078;7.386;2023-11-21T07:25:49;101917.41;;;7.48;100.00
79309;BME280;68767;53.078;7.386;2023-11-21T07:28:16;101924.88;;;7.51;100.00
79309;BME280;68767;53.078;7.386;2023-11-21T07:30:43;101932.91;;;7.51;100.00
79309;BME280;68767;53.078;7.386;2023-11-21T07:33:10;101929.97;;;7.47;100.00
79309;BME280;68767;53.078;7.386;2023-11-21T07:35:37;101936.66;;;7.45;100.00
79309;BME280;68767;53.078;7.386;2023-11-21T07:38:04;101939.56;;;7.43;100.00
79309;BME280;68767;53.078;7.386;2023-11-21T07:40:31;101940.38;;;7.44;100.00
79309;BME280;68767;53.078;7.386;2023-11-21T07:42:58;101954.81;;;7.43;100.00
79309;BME280;68767;53.078;7.386;2023-11-21T07:45:27;101955.63;;;7.43;100.00
79309;BME280;68767;53.078;7.386;2023-11-21T07:47:54;101951.06;;;7.44;100.00
79309;BME280;68767;53.078;7.386;2023-11-21T07:50:22;101967.66;;;7.51;100.00
79309;BME280;68767;53.078;7.386;2023-11-21T07:52:49;101967.94;;;7.49;100.00
79309;BME280;68767;53.078;7.386;2023-11-21T07:55:16;101973.28;;;7.49;100.00
79309;BME280;68767;53.078;7.386;2023-11-21T07:57:43;101972.47;;;7.49;100.00
79309;BME280;68767;53.078;7.386;2023-11-21T08:00:11;101978.34;;;7.51;100.00
79309;BME280;68767;53.078;7.386;2023-11-21T08:02:39;101982.38;;;7.53;100.00
79309;BME280;68767;53.078;7.386;2023-11-21T08:05:09;101988.25;;;7.55;100.00
79309;BME280;68767;53.078;7.386;2023-11-21T08:07:50;102003.22;;;7.51;100.00
79309;BME280;68767;53.078;7.386;2023-11-21T08:10:17;101999.75;;;7.51;100.00
79309;BME280;68767;53.078;7.386;2023-11-21T08:12:44;102006.97;;;7.60;100.00
79309;BME280;68767;53.078;7.386;2023-11-21T08:15:11;102006.97;;;7.66;100.00
79309;BME280;68767;53.078;7.386;2023-11-21T08:17:38;102009.91;;;7.64;100.00
79309;BME280;68767;53.078;7.386;2023-11-21T08:20:06;102009.09;;;7.69;100.00
79309;BME280;68767;53.078;7.386;2023-11-21T08:22:35;102010.72;;;7.65;100.00
79309;BME280;68767;53.078;7.386;2023-11-21T08:25:03;102011.78;;;7.58;100.00
79309;BME280;68767;53.078;7.386;2023-11-21T08:27:32;102020.88;;;7.63;100.00
79309;BME280;68767;53.078;7.386;2023-11-21T08:30:00;102029.16;;;7.61;100.00
79309;BME280;68767;53.078;7.386;2023-11-21T08:32:27;102032.66;;;7.72;100.00
79309;BME280;68767;53.078;7.386;2023-11-21T08:34:54;102035.56;;;7.75;100.00
79309;BME280;68767;53.078;7.386;2023-11-21T08:37:21;102045.50;;;7.70;100.00
79309;BME280;68767;53.078;7.386;2023-11-21T08:39:48;102036.41;;;7.71;100.00
79309;BME280;68767;53.078;7.386;2023-11-21T08:42:15;102037.72;;;7.68;100.00
79309;BME280;68767;53.078;7.386;2023-11-21T08:44:42;102039.84;;;7.66;100.00
79309;BME280;68767;53.078;7.386;2023-11-21T08:47:09;102057.00;;;7.70;100.00
79309;BME280;68767;53.078;7.386;2023-11-21T08:49:36;102061.78;;;7.68;100.00
79309;BME280;68767;53.078;7.386;2023-11-21T08:52:03;102067.13;;;7.68;100.00
79309;BME280;68767;53.078;7.386;2023-11-21T08:54:31;102068.22;;;7.67;100.00
79309;BME280;68767;53.078;7.386;2023-11-21T08:56:58;102071.13;;;7.60;100.00
79309;BME280;68767;53.078;7.386;2023-11-21T08:59:25;102075.69;;;7.50;100.00
79309;BME280;68767;53.078;7.386;2023-11-21T09:01:53;102075.41;;;7.46;100.00
79309;BME280;68767;53.078;7.386;2023-11-21T09:04:20;102080.47;;;7.43;100.00
79309;BME280;68767;53.078;7.386;2023-11-21T09:06:47;102082.09;;;7.39;100.00
79309;BME280;68767;53.078;7.386;2023-11-21T09:09:14;102086.38;;;7.40;100.00
79309;BME280;68767;53.078;7.386;2023-11-21T09:11:41;102079.13;;;7.30;100.00
79309;BME280;68767;53.078;7.386;2023-11-21T09:14:08;102087.94;;;7.30;100.00
79309;BME280;68767;53.078;7.386;2023-11-21T09:16:36;102099.16;;;7.27;100.00
79309;BME280;68767;53.078;7.386;2023-11-21T09:19:03;102094.34;;;7.24;100.00
79309;BME280;68767;53.078;7.386;2023-11-21T09:21:32;102107.97;;;7.23;100.00
79309;BME280;68767;53.078;7.386;2023-11-21T09:23:59;102107.47;;;7.31;100.00
79309;BME280;68767;53.078;7.386;2023-11-21T09:26:26;102103.97;;;7.36;100.00
79309;BME280;68767;53.078;7.386;2023-11-21T09:28:53;102112.28;;;7.34;100.00
79309;BME280;68767;53.078;7.386;2023-11-21T09:31:22;102108.03;;;7.38;100.00
79309;BME280;68767;53.078;7.386;2023-11-21T09:33:50;102118.97;;;7.42;100.00
79309;BME280;68767;53.078;7.386;2023-11-21T09:36:17;102123.56;;;7.56;100.00
79309;BME280;68767;53.078;7.386;2023-11-21T09:38:44;102125.16;;;7.57;100.00
79309;BME280;68767;53.078;7.386;2023-11-21T09:41:23;102119.03;;;7.62;100.00
79309;BME280;68767;53.078;7.386;2023-11-21T09:43:54;102127.88;;;7.63;100.00
79309;BME280;68767;53.078;7.386;2023-11-21T09:46:23;102126.00;;;7.63;100.00
79309;BME280;68767;53.078;7.386;2023-11-21T09:48:52;102127.84;;;7.57;100.00
79309;BME280;68767;53.078;7.386;2023-11-21T09:51:20;102132.91;;;7.49;100.00
79309;BME280;68767;53.078;7.386;2023-11-21T09:53:50;102136.38;;;7.49;100.00
79309;BME280;68767;53.078;7.386;2023-11-21T09:56:19;102130.25;;;7.54;100.00
79309;BME280;68767;53.078;7.386;2023-11-21T09:58:52;102140.44;;;7.62;100.00
79309;BME280;68767;53.078;7.386;2023-11-21T10:01:21;102140.66;;;7.60;100.00
79309;BME280;68767;53.078;7.386;2023-11-21T10:03:49;102150.03;;;7.58;100.00
79309;BME280;68767;53.078;7.386;2023-11-21T10:06:17;102149.78;;;7.54;100.00
79309;BME280;68767;53.078;7.386;2023-11-21T10:08:45;102151.38;;;7.60;100.00
79309;BME280;68767;53.078;7.386;2023-11-21T10:11:24;102147.34;;;7.53;100.00
79309;BME280;68767;53.078;7.386;2023-11-21T10:13:55;102149.47;;;7.51;100.00
79309;BME280;68767;53.078;7.386;2023-11-21T10:16:25;102152.41;;;7.49;100.00
79309;BME280;68767;53.078;7.386;2023-11-21T10:18:53;102162.84;;;7.51;100.00
79309;BME280;68767;53.078;7.386;2023-11-21T10:21:39;102170.84;;;7.41;100.00
79309;BME280;68767;53.078;7.386;2023-11-21T10:24:06;102158.00;;;7.32;100.00
79309;BME280;68767;53.078;7.386;2023-11-21T10:26:34;102163.38;;;7.38;100.00
79309;BME280;68767;53.078;7.386;2023-11-21T10:29:16;102167.91;;;7.42;100.00
79309;BME280;68767;53.078;7.386;2023-11-21T10:31:45;102163.94;;;7.45;100.00
79309;BME280;68767;53.078;7.386;2023-11-21T10:34:19;102167.69;;;7.54;100.00
79309;BME280;68767;53.078;7.386;2023-11-21T10:36:47;102173.53;;;7.51;100.00
79309;BME280;68767;53.078;7.386;2023-11-21T10:39:16;102171.69;;;7.56;100.00
79309;BME280;68767;53.078;7.386;2023-11-21T10:41:48;102182.91;;;7.48;100.00
79309;BME280;68767;53.078;7.386;2023-11-21T10:44:17;102184.75;;;7.43;100.00
79309;BME280;68767;53.078;7.386;2023-11-21T10:46:52;102189.28;;;7.37;100.00
79309;BME280;68767;53.078;7.386;2023-11-21T10:49:24;102186.84;;;7.30;100.00
79309;BME280;68767;53.078;7.386;2023-11-21T10:51:56;102179.91;;;7.29;100.00
79309;BME280;68767;53.078;7.386;2023-11-21T10:54:24;102195.94;;;7.35;100.00
79309;BME280;68767;53.078;7.386;2023-11-21T10:56:57;102189.59;;;7.46;100.00
79309;BME280;68767;53.078;7.386;2023-11-21T10:59:30;102192.50;;;7.39;100.00
79309;BME280;68767;53.078;7.386;2023-11-21T11:02:01;102208.84;;;7.53;100.00
79309;BME280;68767;53.078;7.386;2023-11-21T11:04:31;102210.22;;;7.60;100.00
79309;BME280;68767;53.078;7.386;2023-11-21T11:07:02;102209.69;;;7.64;100.00
79309;BME280;68767;53.078;7.386;2023-11-21T11:09:32;102206.19;;;7.58;100.00
79309;BME280;68767;53.078;7.386;2023-11-21T11:12:02;102210.97;;;7.51;100.00
79309;BME280;68767;53.078;7.386;2023-11-21T11:14:32;102215.53;;;7.50;100.00
79309;BME280;68767;53.078;7.386;2023-11-21T11:17:00;102211.50;;;7.53;100.00
79309;BME280;68767;53.078;7.386;2023-11-21T11:19:29;102216.13;;;7.68;100.00
79309;BME280;68767;53.078;7.386;2023-11-21T11:22:28;102213.47;;;7.73;100.00
79309;BME280;68767;53.078;7.386;2023-11-21T11:28:08;102215.34;;;7.77;100.00
79309;BME280;68767;53.078;7.386;2023-11-21T11:30:57;102214.81;;;7.85;100.00
79309;BME280;68767;53.078;7.386;2023-11-21T11:33:43;102211.91;;;7.97;100.00
79309;BME280;68767;53.078;7.386;2023-11-21T11:36:25;102215.38;;;7.82;100.00
79309;BME280;68767;53.078;7.386;2023-11-21T11:38:52;102210.56;;;7.79;100.00
79309;BME280;68767;53.078;7.386;2023-11-21T11:41:32;102198.47;;;7.77;100.00
79309;BME280;68767;53.078;7.386;2023-11-21T11:44:01;102219.34;;;7.75;100.00
79309;BME280;68767;53.078;7.386;2023-11-21T11:49:08;102221.53;;;7.88;100.00
79309;BME280;68767;53.078;7.386;2023-11-21T11:51:35;102230.63;;;7.87;100.00
79309;BME280;68767;53.078;7.386;2023-11-21T11:54:05;102230.63;;;7.87;100.00
79309;BME280;68767;53.078;7.386;2023-11-21T11:56:34;102245.63;;;7.93;100.00
79309;BME280;68767;53.078;7.386;2023-11-21T11:59:03;102251.47;;;7.85;100.00
79309;BME280;68767;53.078;7.386;2023-11-21T12:01:33;102253.09;;;7.91;100.00
79309;BME280;68767;53.078;7.386;2023-11-21T12:07:00;102261.88;;;7.76;100.00
79309;BME280;68767;53.078;7.386;2023-11-21T12:09:30;102255.47;;;7.72;100.00
79309;BME280;68767;53.078;7.386;2023-11-21T12:11:58;102254.41;;;7.73;100.00
79309;BME280;68767;53.078;7.386;2023-11-21T12:14:25;102260.81;;;7.72;100.00
79309;BME280;68767;53.078;7.386;2023-11-21T12:16:53;102268.56;;;7.74;100.00
79309;BME280;68767;53.078;7.386;2023-11-21T12:19:20;102270.19;;;7.75;100.00
79309;BME280;68767;53.078;7.386;2023-11-21T12:21:47;102278.22;;;7.85;100.00
79309;BME280;68767;53.078;7.386;2023-11-21T12:24:15;102278.25;;;7.80;100.00
79309;BME280;68767;53.078;7.386;2023-11-21T12:26:43;102273.66;;;7.75;100.00
79309;BME280;68767;53.078;7.386;2023-11-21T12:29:11;102277.38;;;7.64;100.00
79309;BME280;68767;53.078;7.386;2023-11-21T12:31:38;102282.41;;;7.55;100.00
79309;BME280;68767;53.078;7.386;2023-11-21T12:34:06;102281.63;;;7.55;100.00
79309;BME280;68767;53.078;7.386;2023-11-21T12:36:34;102279.47;;;7.57;100.00
79309;BME280;68767;53.078;7.386;2023-11-21T12:39:02;102288.59;;;7.66;100.00
79309;BME280;68767;53.078;7.386;2023-11-21T12:41:29;102307.88;;;7.68;100.00
79309;BME280;68767;53.078;7.386;2023-11-21T12:43:57;102302.81;;;7.77;100.00
79309;BME280;68767;53.078;7.386;2023-11-21T12:46:24;102302.06;;;7.92;100.00
79309;BME280;68767;53.078;7.386;2023-11-21T12:48:56;102306.09;;;7.94;100.00
79309;BME280;68767;53.078;7.386;2023-11-21T12:51:24;102308.03;;;8.04;100.00
79309;BME280;68767;53.078;7.386;2023-11-21T12:53:52;102301.28;;;8.01;100.00
79309;BME280;68767;53.078;7.386;2023-11-21T12:56:21;102308.53;;;8.01;100.00
79309;BME280;68767;53.078;7.386;2023-11-21T12:58:53;102310.09;;;7.92;100.00
79309;BME280;68767;53.078;7.386;2023-11-21T13:01:20;102318.94;;;7.87;100.00
79309;BME280;68767;53.078;7.386;2023-11-21T13:03:53;102311.09;;;7.75;100.00